sensor_id;sensor_type;location;lat;lon;timestamp;P1;P2;P0
55518;PMS5003;41724;51.176;-0.708;2022-09-20T00:01:15;10;10;
55518;PMS5003;41724;51.176;-0.708;2022-09-20T00:03:44;8;8;
55518;PMS5003;41724;51.176;-0.708;2022-09-20T00:06:12;8;8;
55518;PMS5003;41724;51.176;-0.708;2022-09-20T00:08:41;10;9;
55518;PMS5003;41724;51.176;-0.708;2022-09-20T00:11:10;10;10;
55518;PMS5003;41724;51.176;-0.708;2022-09-20T00:13:38;12;11;
55518;PMS5003;41724;51.176;-0.708;2022-09-20T00:16:06;10;10;
55518;PMS5003;41724;51.176;-0.708;2022-09-20T00:18:35;12;9;
55518;PMS5003;41724;51.176;-0.708;2022-09-20T00:21:03;10;10;
55518;PMS5003;41724;51.176;-0.708;2022-09-20T00:23:31;7;7;
55518;PMS5003;41724;51.176;-0.708;2022-09-20T00:25:59;9;9;
55518;PMS5003;41724;51.176;-0.708;2022-09-20T00:28:27;6;6;
55518;PMS5003;41724;51.176;-0.708;2022-09-20T00:30:55;10;8;
55518;PMS5003;41724;51.176;-0.708;2022-09-20T00:33:23;10;8;
55518;PMS5003;41724;51.176;-0.708;2022-09-20T00:35:51;10;9;
55518;PMS5003;41724;51.176;-0.708;2022-09-20T00:38:18;12;10;
55518;PMS5003;41724;51.176;-0.708;2022-09-20T00:40:45;9;9;
55518;PMS5003;41724;51.176;-0.708;2022-09-20T00:43:13;10;7;
55518;PMS5003;41724;51.176;-0.708;2022-09-20T00:45:41;9;9;
55518;PMS5003;41724;51.176;-0.708;2022-09-20T00:48:10;7;7;
55518;PMS5003;41724;51.176;-0.708;2022-09-20T00:50:46;12;9;
55518;PMS5003;41724;51.176;-0.708;2022-09-20T00:53:19;7;7;
55518;PMS5003;41724;51.176;-0.708;2022-09-20T00:55:53;13;11;
55518;PMS5003;41724;51.176;-0.708;2022-09-20T00:58:25;7;7;
55518;PMS5003;41724;51.176;-0.708;2022-09-20T01:00:55;9;9;
55518;PMS5003;41724;51.176;-0.708;2022-09-20T01:03:24;10;10;
55518;PMS5003;41724;51.176;-0.708;2022-09-20T01:05:54;12;12;
55518;PMS5003;41724;51.176;-0.708;2022-09-20T01:08:21;13;11;
55518;PMS5003;41724;51.176;-0.708;2022-09-20T01:10:49;11;11;
55518;PMS5003;41724;51.176;-0.708;2022-09-20T01:13:16;10;9;
55518;PMS5003;41724;51.176;-0.708;2022-09-20T01:15:44;9;8;
55518;PMS5003;41724;51.176;-0.708;2022-09-20T01:18:12;13;9;
55518;PMS5003;41724;51.176;-0.708;2022-09-20T01:20:41;9;8;
55518;PMS5003;41724;51.176;-0.708;2022-09-20T01:23:18;12;9;
55518;PMS5003;41724;51.176;-0.708;2022-09-20T01:26:06;8;8;
55518;PMS5003;41724;51.176;-0.708;2022-09-20T01:29:00;11;6;
55518;PMS5003;41724;51.176;-0.708;2022-09-20T01:31:35;12;8;
55518;PMS5003;41724;51.176;-0.708;2022-09-20T01:34:10;8;8;
55518;PMS5003;41724;51.176;-0.708;2022-09-20T01:36:42;8;7;
55518;PMS5003;41724;51.176;-0.708;2022-09-20T01:39:15;9;9;
55518;PMS5003;41724;51.176;-0.708;2022-09-20T01:41:56;7;7;
55518;PMS5003;41724;51.176;-0.708;2022-09-20T01:44:27;7;7;
55518;PMS5003;41724;51.176;-0.708;2022-09-20T01:47:04;6;6;
55518;PMS5003;41724;51.176;-0.708;2022-09-20T01:49:41;8;6;
55518;PMS5003;41724;51.176;-0.708;2022-09-20T01:53:32;8;8;
55518;PMS5003;41724;51.176;-0.708;2022-09-20T01:57:19;8;8;
55518;PMS5003;41724;51.176;-0.708;2022-09-20T02:00:04;6;6;
55518;PMS5003;41724;51.176;-0.708;2022-09-20T02:02:40;8;8;
55518;PMS5003;41724;51.176;-0.708;2022-09-20T02:05:45;5;5;
55518;PMS5003;41724;51.176;-0.708;2022-09-20T02:08:29;6;6;
55518;PMS5003;41724;51.176;-0.708;2022-09-20T02:10:56;7;7;
55518;PMS5003;41724;51.176;-0.708;2022-09-20T02:13:32;9;8;
55518;PMS5003;41724;51.176;-0.708;2022-09-20T02:16:23;11;6;
55518;PMS5003;41724;51.176;-0.708;2022-09-20T02:19:09;10;9;
55518;PMS5003;41724;51.176;-0.708;2022-09-20T02:22:05;9;9;
55518;PMS5003;41724;51.176;-0.708;2022-09-20T02:24:43;7;6;
55518;PMS5003;41724;51.176;-0.708;2022-09-20T02:27:21;7;7;
55518;PMS5003;41724;51.176;-0.708;2022-09-20T02:29:57;8;8;
55518;PMS5003;41724;51.176;-0.708;2022-09-20T02:32:43;6;6;
55518;PMS5003;41724;51.176;-0.708;2022-09-20T02:35:27;6;6;
55518;PMS5003;41724;51.176;-0.708;2022-09-20T02:38:10;6;6;
55518;PMS5003;41724;51.176;-0.708;2022-09-20T02:41:08;9;8;
55518;PMS5003;41724;51.176;-0.708;2022-09-20T02:43:55;5;5;
55518;PMS5003;41724;51.176;-0.708;2022-09-20T02:46:33;8;6;
55518;PMS5003;41724;51.176;-0.708;2022-09-20T02:49:09;6;6;
55518;PMS5003;41724;51.176;-0.708;2022-09-20T02:51:45;7;7;
55518;PMS5003;41724;51.176;-0.708;2022-09-20T02:54:21;7;7;
55518;PMS5003;41724;51.176;-0.708;2022-09-20T02:57:01;4;4;
55518;PMS5003;41724;51.176;-0.708;2022-09-20T02:59:43;7;7;
55518;PMS5003;41724;51.176;-0.708;2022-09-20T03:02:21;7;6;
55518;PMS5003;41724;51.176;-0.708;2022-09-20T03:05:00;5;5;
55518;PMS5003;41724;51.176;-0.708;2022-09-20T03:07:38;6;6;
55518;PMS5003;41724;51.176;-0.708;2022-09-20T03:10:15;4;4;
55518;PMS5003;41724;51.176;-0.708;2022-09-20T03:12:51;5;5;
55518;PMS5003;41724;51.176;-0.708;2022-09-20T03:15:33;7;6;
55518;PMS5003;41724;51.176;-0.708;2022-09-20T03:18:09;4;4;
55518;PMS5003;41724;51.176;-0.708;2022-09-20T03:20:44;4;4;
55518;PMS5003;41724;51.176;-0.708;2022-09-20T03:23:29;5;5;
55518;PMS5003;41724;51.176;-0.708;2022-09-20T03:26:13;6;5;
55518;PMS5003;41724;51.176;-0.708;2022-09-20T03:28:56;1;1;
55518;PMS5003;41724;51.176;-0.708;2022-09-20T03:31:35;4;4;
55518;PMS5003;41724;51.176;-0.708;2022-09-20T03:34:15;3;3;
55518;PMS5003;41724;51.176;-0.708;2022-09-20T03:37:05;5;5;
55518;PMS5003;41724;51.176;-0.708;2022-09-20T03:39:53;4;4;
55518;PMS5003;41724;51.176;-0.708;2022-09-20T03:42:38;5;5;
55518;PMS5003;41724;51.176;-0.708;2022-09-20T03:45:19;5;5;
55518;PMS5003;41724;51.176;-0.708;2022-09-20T03:48:09;5;5;
55518;PMS5003;41724;51.176;-0.708;2022-09-20T03:51:03;5;5;
55518;PMS5003;41724;51.176;-0.708;2022-09-20T03:53:50;5;5;
55518;PMS5003;41724;51.176;-0.708;2022-09-20T03:56:43;4;4;
55518;PMS5003;41724;51.176;-0.708;2022-09-20T03:59:36;4;4;
55518;PMS5003;41724;51.176;-0.708;2022-09-20T04:02:25;4;4;
55518;PMS5003;41724;51.176;-0.708;2022-09-20T04:05:08;5;5;
55518;PMS5003;41724;51.176;-0.708;2022-09-20T04:07:43;5;5;
55518;PMS5003;41724;51.176;-0.708;2022-09-20T04:10:25;5;5;
55518;PMS5003;41724;51.176;-0.708;2022-09-20T04:13:03;4;4;
55518;PMS5003;41724;51.176;-0.708;2022-09-20T04:15:45;4;4;
55518;PMS5003;41724;51.176;-0.708;2022-09-20T04:18:26;5;5;
55518;PMS5003;41724;51.176;-0.708;2022-09-20T04:21:01;6;6;
55518;PMS5003;41724;51.176;-0.708;2022-09-20T04:23:37;4;4;
55518;PMS5003;41724;51.176;-0.708;2022-09-20T04:26:11;4;2;
55518;PMS5003;41724;51.176;-0.708;2022-09-20T04:28:43;4;4;
55518;PMS5003;41724;51.176;-0.708;2022-09-20T04:31:22;4;4;
55518;PMS5003;41724;51.176;-0.708;2022-09-20T04:33:59;4;4;
55518;PMS5003;41724;51.176;-0.708;2022-09-20T04:36:35;5;4;
55518;PMS5003;41724;51.176;-0.708;2022-09-20T04:39:24;4;3;
55518;PMS5003;41724;51.176;-0.708;2022-09-20T04:42:10;5;4;
55518;PMS5003;41724;51.176;-0.708;2022-09-20T04:44:30;4;4;
55518;PMS5003;41724;51.176;-0.708;2022-09-20T04:47:24;5;5;
55518;PMS5003;41724;51.176;-0.708;2022-09-20T04:50:49;5;3;
55518;PMS5003;41724;51.176;-0.708;2022-09-20T04:54:12;4;4;
55518;PMS5003;41724;51.176;-0.708;2022-09-20T04:57:04;3;3;
55518;PMS5003;41724;51.176;-0.708;2022-09-20T04:59:57;4;4;
55518;PMS5003;41724;51.176;-0.708;2022-09-20T05:03:44;4;4;
55518;PMS5003;41724;51.176;-0.708;2022-09-20T05:06:41;6;4;
55518;PMS5003;41724;51.176;-0.708;2022-09-20T05:09:45;5;5;
55518;PMS5003;41724;51.176;-0.708;2022-09-20T05:12:31;5;5;
55518;PMS5003;41724;51.176;-0.708;2022-09-20T05:15:34;7;7;
55518;PMS5003;41724;51.176;-0.708;2022-09-20T05:18:14;6;6;
55518;PMS5003;41724;51.176;-0.708;2022-09-20T05:19:27;6;6;
55518;PMS5003;41724;51.176;-0.708;2022-09-20T05:22:27;7;7;
55518;PMS5003;41724;51.176;-0.708;2022-09-20T05:26:19;11;9;
55518;PMS5003;41724;51.176;-0.708;2022-09-20T05:29:00;8;8;
55518;PMS5003;41724;51.176;-0.708;2022-09-20T05:31:34;8;8;
55518;PMS5003;41724;51.176;-0.708;2022-09-20T05:34:10;7;6;
55518;PMS5003;41724;51.176;-0.708;2022-09-20T05:36:48;8;6;
55518;PMS5003;41724;51.176;-0.708;2022-09-20T05:39:28;8;8;
55518;PMS5003;41724;51.176;-0.708;2022-09-20T05:42:04;6;6;
55518;PMS5003;41724;51.176;-0.708;2022-09-20T05:44:48;7;7;
55518;PMS5003;41724;51.176;-0.708;2022-09-20T05:47:26;6;6;
55518;PMS5003;41724;51.176;-0.708;2022-09-20T05:50:11;6;6;
55518;PMS5003;41724;51.176;-0.708;2022-09-20T05:52:51;6;6;
55518;PMS5003;41724;51.176;-0.708;2022-09-20T05:56:00;8;7;
55518;PMS5003;41724;51.176;-0.708;2022-09-20T05:58:43;8;7;
55518;PMS5003;41724;51.176;-0.708;2022-09-20T06:01:22;5;5;
55518;PMS5003;41724;51.176;-0.708;2022-09-20T06:03:59;5;5;
55518;PMS5003;41724;51.176;-0.708;2022-09-20T06:06:38;8;8;
55518;PMS5003;41724;51.176;-0.708;2022-09-20T06:10:24;9;9;
55518;PMS5003;41724;51.176;-0.708;2022-09-20T06:13:05;10;10;
55518;PMS5003;41724;51.176;-0.708;2022-09-20T06:15:51;9;7;
55518;PMS5003;41724;51.176;-0.708;2022-09-20T06:18:25;8;8;
55518;PMS5003;41724;51.176;-0.708;2022-09-20T06:21:06;8;7;
55518;PMS5003;41724;51.176;-0.708;2022-09-20T06:23:42;10;8;
55518;PMS5003;41724;51.176;-0.708;2022-09-20T06:26:15;10;10;
55518;PMS5003;41724;51.176;-0.708;2022-09-20T06:28:49;15;11;
55518;PMS5003;41724;51.176;-0.708;2022-09-20T06:31:20;14;10;
55518;PMS5003;41724;51.176;-0.708;2022-09-20T06:33:48;10;9;
55518;PMS5003;41724;51.176;-0.708;2022-09-20T06:36:24;9;9;
55518;PMS5003;41724;51.176;-0.708;2022-09-20T06:39:01;8;8;
55518;PMS5003;41724;51.176;-0.708;2022-09-20T06:41:36;7;7;
55518;PMS5003;41724;51.176;-0.708;2022-09-20T06:44:05;8;8;
55518;PMS5003;41724;51.176;-0.708;2022-09-20T06:46:33;7;7;
55518;PMS5003;41724;51.176;-0.708;2022-09-20T06:49:01;11;9;
55518;PMS5003;41724;51.176;-0.708;2022-09-20T06:51:33;9;7;
55518;PMS5003;41724;51.176;-0.708;2022-09-20T06:54:02;6;6;
55518;PMS5003;41724;51.176;-0.708;2022-09-20T06:56:31;8;8;
55518;PMS5003;41724;51.176;-0.708;2022-09-20T06:59:00;9;9;
55518;PMS5003;41724;51.176;-0.708;2022-09-20T07:01:28;7;7;
55518;PMS5003;41724;51.176;-0.708;2022-09-20T07:03:55;8;8;
55518;PMS5003;41724;51.176;-0.708;2022-09-20T07:06:22;10;10;
55518;PMS5003;41724;51.176;-0.708;2022-09-20T07:08:49;9;9;
55518;PMS5003;41724;51.176;-0.708;2022-09-20T07:11:17;7;6;
55518;PMS5003;41724;51.176;-0.708;2022-09-20T07:13:48;9;7;
55518;PMS5003;41724;51.176;-0.708;2022-09-20T07:16:16;10;8;
55518;PMS5003;41724;51.176;-0.708;2022-09-20T07:18:43;10;9;
55518;PMS5003;41724;51.176;-0.708;2022-09-20T07:21:11;12;12;
55518;PMS5003;41724;51.176;-0.708;2022-09-20T07:23:39;10;8;
55518;PMS5003;41724;51.176;-0.708;2022-09-20T07:26:15;10;10;
55518;PMS5003;41724;51.176;-0.708;2022-09-20T07:28:44;10;10;
55518;PMS5003;41724;51.176;-0.708;2022-09-20T07:31:11;11;11;
55518;PMS5003;41724;51.176;-0.708;2022-09-20T07:33:38;11;11;
55518;PMS5003;41724;51.176;-0.708;2022-09-20T07:36:06;13;11;
55518;PMS5003;41724;51.176;-0.708;2022-09-20T07:38:35;12;12;
55518;PMS5003;41724;51.176;-0.708;2022-09-20T07:41:02;11;11;
55518;PMS5003;41724;51.176;-0.708;2022-09-20T07:43:29;11;11;
55518;PMS5003;41724;51.176;-0.708;2022-09-20T07:45:57;12;11;
55518;PMS5003;41724;51.176;-0.708;2022-09-20T07:48:25;10;10;
55518;PMS5003;41724;51.176;-0.708;2022-09-20T07:50:55;13;11;
55518;PMS5003;41724;51.176;-0.708;2022-09-20T07:53:23;14;14;
55518;PMS5003;41724;51.176;-0.708;2022-09-20T07:55:58;14;11;
55518;PMS5003;41724;51.176;-0.708;2022-09-20T07:58:27;12;12;
55518;PMS5003;41724;51.176;-0.708;2022-09-20T08:00:56;13;13;
55518;PMS5003;41724;51.176;-0.708;2022-09-20T08:03:25;10;10;
55518;PMS5003;41724;51.176;-0.708;2022-09-20T08:05:57;13;13;
55518;PMS5003;41724;51.176;-0.708;2022-09-20T08:08:25;12;12;
55518;PMS5003;41724;51.176;-0.708;2022-09-20T08:10:59;10;10;
55518;PMS5003;41724;51.176;-0.708;2022-09-20T08:13:29;14;12;
55518;PMS5003;41724;51.176;-0.708;2022-09-20T08:15:59;11;11;
55518;PMS5003;41724;51.176;-0.708;2022-09-20T08:18:27;11;11;
55518;PMS5003;41724;51.176;-0.708;2022-09-20T08:21:02;12;11;
55518;PMS5003;41724;51.176;-0.708;2022-09-20T08:23:32;12;12;
55518;PMS5003;41724;51.176;-0.708;2022-09-20T08:25:59;9;9;
55518;PMS5003;41724;51.176;-0.708;2022-09-20T08:28:26;9;9;
55518;PMS5003;41724;51.176;-0.708;2022-09-20T08:30:59;10;10;
55518;PMS5003;41724;51.176;-0.708;2022-09-20T08:33:26;10;10;
55518;PMS5003;41724;51.176;-0.708;2022-09-20T08:35:53;10;10;
55518;PMS5003;41724;51.176;-0.708;2022-09-20T08:38:21;16;13;
55518;PMS5003;41724;51.176;-0.708;2022-09-20T08:40:48;10;10;
55518;PMS5003;41724;51.176;-0.708;2022-09-20T08:43:15;9;9;
55518;PMS5003;41724;51.176;-0.708;2022-09-20T08:45:43;9;9;
55518;PMS5003;41724;51.176;-0.708;2022-09-20T08:48:11;14;11;
55518;PMS5003;41724;51.176;-0.708;2022-09-20T08:50:43;14;11;
55518;PMS5003;41724;51.176;-0.708;2022-09-20T08:53:11;13;12;
55518;PMS5003;41724;51.176;-0.708;2022-09-20T08:55:39;12;12;
55518;PMS5003;41724;51.176;-0.708;2022-09-20T08:58:13;10;10;
55518;PMS5003;41724;51.176;-0.708;2022-09-20T09:00:41;10;9;
55518;PMS5003;41724;51.176;-0.708;2022-09-20T09:03:12;16;12;
55518;PMS5003;41724;51.176;-0.708;2022-09-20T09:05:42;10;10;
55518;PMS5003;41724;51.176;-0.708;2022-09-20T09:08:11;12;11;
55518;PMS5003;41724;51.176;-0.708;2022-09-20T09:10:40;8;8;
55518;PMS5003;41724;51.176;-0.708;2022-09-20T09:13:15;11;10;
55518;PMS5003;41724;51.176;-0.708;2022-09-20T09:15:49;8;8;
55518;PMS5003;41724;51.176;-0.708;2022-09-20T09:18:26;11;11;
55518;PMS5003;41724;51.176;-0.708;2022-09-20T09:20:57;10;10;
55518;PMS5003;41724;51.176;-0.708;2022-09-20T09:23:25;11;9;
55518;PMS5003;41724;51.176;-0.708;2022-09-20T09:25:53;10;10;
55518;PMS5003;41724;51.176;-0.708;2022-09-20T09:28:22;10;10;
55518;PMS5003;41724;51.176;-0.708;2022-09-20T09:30:51;7;7;
55518;PMS5003;41724;51.176;-0.708;2022-09-20T09:33:21;11;11;
55518;PMS5003;41724;51.176;-0.708;2022-09-20T09:35:52;8;8;
55518;PMS5003;41724;51.176;-0.708;2022-09-20T09:38:22;7;7;
55518;PMS5003;41724;51.176;-0.708;2022-09-20T09:40:52;8;8;
55518;PMS5003;41724;51.176;-0.708;2022-09-20T09:43:20;8;7;
55518;PMS5003;41724;51.176;-0.708;2022-09-20T09:45:50;7;7;
55518;PMS5003;41724;51.176;-0.708;2022-09-20T09:48:18;7;7;
55518;PMS5003;41724;51.176;-0.708;2022-09-20T09:50:49;6;6;
55518;PMS5003;41724;51.176;-0.708;2022-09-20T09:53:17;6;5;
55518;PMS5003;41724;51.176;-0.708;2022-09-20T09:56:00;7;4;
55518;PMS5003;41724;51.176;-0.708;2022-09-20T09:58:42;5;5;
55518;PMS5003;41724;51.176;-0.708;2022-09-20T10:01:23;7;5;
55518;PMS5003;41724;51.176;-0.708;2022-09-20T10:03:59;6;6;
55518;PMS5003;41724;51.176;-0.708;2022-09-20T10:06:36;5;5;
55518;PMS5003;41724;51.176;-0.708;2022-09-20T10:09:16;6;4;
55518;PMS5003;41724;51.176;-0.708;2022-09-20T10:11:59;6;6;
55518;PMS5003;41724;51.176;-0.708;2022-09-20T10:14:43;5;3;
55518;PMS5003;41724;51.176;-0.708;2022-09-20T10:17:27;4;4;
55518;PMS5003;41724;51.176;-0.708;2022-09-20T10:20:07;3;3;
55518;PMS5003;41724;51.176;-0.708;2022-09-20T10:22:56;4;4;
55518;PMS5003;41724;51.176;-0.708;2022-09-20T10:25:37;4;4;
55518;PMS5003;41724;51.176;-0.708;2022-09-20T10:28:14;3;3;
55518;PMS5003;41724;51.176;-0.708;2022-09-20T10:30:56;3;3;
55518;PMS5003;41724;51.176;-0.708;2022-09-20T10:33:37;3;3;
55518;PMS5003;41724;51.176;-0.708;2022-09-20T10:36:13;4;4;
55518;PMS5003;41724;51.176;-0.708;2022-09-20T10:38:49;1;1;
55518;PMS5003;41724;51.176;-0.708;2022-09-20T10:41:26;4;2;
55518;PMS5003;41724;51.176;-0.708;2022-09-20T10:44:09;3;3;
55518;PMS5003;41724;51.176;-0.708;2022-09-20T10:46:52;1;1;
55518;PMS5003;41724;51.176;-0.708;2022-09-20T10:49:30;2;2;
55518;PMS5003;41724;51.176;-0.708;2022-09-20T10:52:13;1;1;
55518;PMS5003;41724;51.176;-0.708;2022-09-20T10:54:51;1;1;
55518;PMS5003;41724;51.176;-0.708;2022-09-20T10:57:38;3;2;
55518;PMS5003;41724;51.176;-0.708;2022-09-20T11:00:20;4;2;
55518;PMS5003;41724;51.176;-0.708;2022-09-20T11:02:54;2;2;
55518;PMS5003;41724;51.176;-0.708;2022-09-20T11:05:36;2;2;
55518;PMS5003;41724;51.176;-0.708;2022-09-20T11:08:14;2;1;
55518;PMS5003;41724;51.176;-0.708;2022-09-20T11:10:45;2;2;
55518;PMS5003;41724;51.176;-0.708;2022-09-20T11:13:20;2;2;
55518;PMS5003;41724;51.176;-0.708;2022-09-20T11:15:53;1;1;
55518;PMS5003;41724;51.176;-0.708;2022-09-20T11:18:29;2;2;
55518;PMS5003;41724;51.176;-0.708;2022-09-20T11:21:05;3;1;
55518;PMS5003;41724;51.176;-0.708;2022-09-20T11:23:39;1;1;
55518;PMS5003;41724;51.176;-0.708;2022-09-20T11:26:14;2;1;
55518;PMS5003;41724;51.176;-0.708;2022-09-20T11:28:45;3;3;
55518;PMS5003;41724;51.176;-0.708;2022-09-20T11:31:19;5;4;
55518;PMS5003;41724;51.176;-0.708;2022-09-20T11:33:52;4;4;
55518;PMS5003;41724;51.176;-0.708;2022-09-20T11:36:24;3;3;
55518;PMS5003;41724;51.176;-0.708;2022-09-20T11:38:56;2;2;
55518;PMS5003;41724;51.176;-0.708;2022-09-20T11:41:29;2;2;
55518;PMS5003;41724;51.176;-0.708;2022-09-20T11:43:58;2;2;
55518;PMS5003;41724;51.176;-0.708;2022-09-20T11:46:30;1;1;
55518;PMS5003;41724;51.176;-0.708;2022-09-20T11:49:04;1;1;
55518;PMS5003;41724;51.176;-0.708;2022-09-20T11:51:45;1;1;
55518;PMS5003;41724;51.176;-0.708;2022-09-20T11:55:33;2;2;
55518;PMS5003;41724;51.176;-0.708;2022-09-20T11:58:08;2;2;
55518;PMS5003;41724;51.176;-0.708;2022-09-20T12:00:39;4;2;
55518;PMS5003;41724;51.176;-0.708;2022-09-20T12:03:19;1;1;
55518;PMS5003;41724;51.176;-0.708;2022-09-20T12:05:55;2;2;
55518;PMS5003;41724;51.176;-0.708;2022-09-20T12:08:24;2;2;
55518;PMS5003;41724;51.176;-0.708;2022-09-20T12:10:56;0;0;
55518;PMS5003;41724;51.176;-0.708;2022-09-20T12:13:26;2;2;
55518;PMS5003;41724;51.176;-0.708;2022-09-20T12:15:58;2;2;
55518;PMS5003;41724;51.176;-0.708;2022-09-20T12:18:30;2;2;
55518;PMS5003;41724;51.176;-0.708;2022-09-20T12:21:05;1;1;
55518;PMS5003;41724;51.176;-0.708;2022-09-20T12:24:23;1;1;
55518;PMS5003;41724;51.176;-0.708;2022-09-20T12:26:52;3;3;
55518;PMS5003;41724;51.176;-0.708;2022-09-20T12:29:54;2;2;
55518;PMS5003;41724;51.176;-0.708;2022-09-20T12:32:39;3;2;
55518;PMS5003;41724;51.176;-0.708;2022-09-20T12:35:50;4;3;
55518;PMS5003;41724;51.176;-0.708;2022-09-20T12:38:27;1;1;
55518;PMS5003;41724;51.176;-0.708;2022-09-20T12:40:58;1;1;
55518;PMS5003;41724;51.176;-0.708;2022-09-20T12:43:28;2;1;
55518;PMS5003;41724;51.176;-0.708;2022-09-20T12:45:56;3;3;
55518;PMS5003;41724;51.176;-0.708;2022-09-20T12:48:24;2;2;
55518;PMS5003;41724;51.176;-0.708;2022-09-20T12:51:16;3;3;
55518;PMS5003;41724;51.176;-0.708;2022-09-20T12:53:58;2;2;
55518;PMS5003;41724;51.176;-0.708;2022-09-20T12:56:28;2;2;
55518;PMS5003;41724;51.176;-0.708;2022-09-20T12:58:55;2;2;
55518;PMS5003;41724;51.176;-0.708;2022-09-20T13:01:28;2;2;
55518;PMS5003;41724;51.176;-0.708;2022-09-20T13:05:02;3;3;
55518;PMS5003;41724;51.176;-0.708;2022-09-20T13:07:56;1;1;
55518;PMS5003;41724;51.176;-0.708;2022-09-20T13:10:28;2;2;
55518;PMS5003;41724;51.176;-0.708;2022-09-20T13:13:02;1;1;
55518;PMS5003;41724;51.176;-0.708;2022-09-20T13:15:40;2;2;
55518;PMS5003;41724;51.176;-0.708;2022-09-20T13:18:14;3;3;
55518;PMS5003;41724;51.176;-0.708;2022-09-20T13:20:44;3;3;
55518;PMS5003;41724;51.176;-0.708;2022-09-20T13:23:15;2;2;
55518;PMS5003;41724;51.176;-0.708;2022-09-20T13:25:45;2;2;
55518;PMS5003;41724;51.176;-0.708;2022-09-20T13:28:24;2;2;
55518;PMS5003;41724;51.176;-0.708;2022-09-20T13:31:31;0;0;
55518;PMS5003;41724;51.176;-0.708;2022-09-20T13:34:17;2;2;
55518;PMS5003;41724;51.176;-0.708;2022-09-20T13:36:47;2;2;
55518;PMS5003;41724;51.176;-0.708;2022-09-20T13:39:22;3;2;
55518;PMS5003;41724;51.176;-0.708;2022-09-20T13:41:57;1;1;
55518;PMS5003;41724;51.176;-0.708;2022-09-20T13:44:26;3;3;
55518;PMS5003;41724;51.176;-0.708;2022-09-20T13:46:54;2;2;
55518;PMS5003;41724;51.176;-0.708;2022-09-20T13:49:21;2;2;
55518;PMS5003;41724;51.176;-0.708;2022-09-20T13:51:48;2;2;
55518;PMS5003;41724;51.176;-0.708;2022-09-20T13:54:17;1;1;
55518;PMS5003;41724;51.176;-0.708;2022-09-20T13:56:46;2;2;
55518;PMS5003;41724;51.176;-0.708;2022-09-20T13:59:14;2;2;
55518;PMS5003;41724;51.176;-0.708;2022-09-20T14:01:43;1;1;
55518;PMS5003;41724;51.176;-0.708;2022-09-20T14:04:15;1;1;
55518;PMS5003;41724;51.176;-0.708;2022-09-20T14:06:46;2;2;
55518;PMS5003;41724;51.176;-0.708;2022-09-20T14:09:17;2;2;
55518;PMS5003;41724;51.176;-0.708;2022-09-20T14:11:51;2;2;
55518;PMS5003;41724;51.176;-0.708;2022-09-20T14:14:19;2;2;
55518;PMS5003;41724;51.176;-0.708;2022-09-20T14:16:48;1;1;
55518;PMS5003;41724;51.176;-0.708;2022-09-20T14:19:17;2;2;
55518;PMS5003;41724;51.176;-0.708;2022-09-20T14:21:51;0;0;
55518;PMS5003;41724;51.176;-0.708;2022-09-20T14:24:22;2;2;
55518;PMS5003;41724;51.176;-0.708;2022-09-20T14:27:03;2;2;
55518;PMS5003;41724;51.176;-0.708;2022-09-20T14:29:36;3;3;
55518;PMS5003;41724;51.176;-0.708;2022-09-20T14:32:06;1;1;
55518;PMS5003;41724;51.176;-0.708;2022-09-20T14:34:42;2;2;
55518;PMS5003;41724;51.176;-0.708;2022-09-20T14:37:10;3;2;
55518;PMS5003;41724;51.176;-0.708;2022-09-20T14:39:45;2;2;
55518;PMS5003;41724;51.176;-0.708;2022-09-20T14:42:17;1;1;
55518;PMS5003;41724;51.176;-0.708;2022-09-20T14:44:49;1;1;
55518;PMS5003;41724;51.176;-0.708;2022-09-20T14:47:22;2;2;
55518;PMS5003;41724;51.176;-0.708;2022-09-20T14:49:52;0;0;
55518;PMS5003;41724;51.176;-0.708;2022-09-20T14:52:22;2;2;
55518;PMS5003;41724;51.176;-0.708;2022-09-20T14:54:57;4;2;
55518;PMS5003;41724;51.176;-0.708;2022-09-20T14:57:26;2;2;
55518;PMS5003;41724;51.176;-0.708;2022-09-20T14:59:55;2;2;
55518;PMS5003;41724;51.176;-0.708;2022-09-20T15:02:22;1;1;
55518;PMS5003;41724;51.176;-0.708;2022-09-20T15:04:51;3;3;
55518;PMS5003;41724;51.176;-0.708;2022-09-20T15:07:21;2;2;
55518;PMS5003;41724;51.176;-0.708;2022-09-20T15:09:48;2;2;
55518;PMS5003;41724;51.176;-0.708;2022-09-20T15:12:16;2;2;
55518;PMS5003;41724;51.176;-0.708;2022-09-20T15:14:44;3;2;
55518;PMS5003;41724;51.176;-0.708;2022-09-20T15:17:13;1;1;
55518;PMS5003;41724;51.176;-0.708;2022-09-20T15:19:41;1;1;
55518;PMS5003;41724;51.176;-0.708;2022-09-20T15:22:09;2;2;
55518;PMS5003;41724;51.176;-0.708;2022-09-20T15:24:37;1;1;
55518;PMS5003;41724;51.176;-0.708;2022-09-20T15:27:04;2;2;
55518;PMS5003;41724;51.176;-0.708;2022-09-20T15:29:31;2;2;
55518;PMS5003;41724;51.176;-0.708;2022-09-20T15:31:58;0;0;
55518;PMS5003;41724;51.176;-0.708;2022-09-20T15:34:26;2;2;
55518;PMS5003;41724;51.176;-0.708;2022-09-20T15:36:53;2;2;
55518;PMS5003;41724;51.176;-0.708;2022-09-20T15:39:20;2;2;
55518;PMS5003;41724;51.176;-0.708;2022-09-20T15:41:50;3;3;
55518;PMS5003;41724;51.176;-0.708;2022-09-20T15:44:17;2;2;
55518;PMS5003;41724;51.176;-0.708;2022-09-20T15:46:44;2;2;
55518;PMS5003;41724;51.176;-0.708;2022-09-20T15:49:12;3;3;
55518;PMS5003;41724;51.176;-0.708;2022-09-20T15:51:39;1;1;
55518;PMS5003;41724;51.176;-0.708;2022-09-20T15:54:06;2;2;
55518;PMS5003;41724;51.176;-0.708;2022-09-20T15:56:38;3;3;
55518;PMS5003;41724;51.176;-0.708;2022-09-20T15:59:05;2;2;
55518;PMS5003;41724;51.176;-0.708;2022-09-20T16:01:35;3;3;
55518;PMS5003;41724;51.176;-0.708;2022-09-20T16:04:03;3;3;
55518;PMS5003;41724;51.176;-0.708;2022-09-20T16:06:32;2;2;
55518;PMS5003;41724;51.176;-0.708;2022-09-20T16:09:00;2;2;
55518;PMS5003;41724;51.176;-0.708;2022-09-20T16:11:27;3;3;
55518;PMS5003;41724;51.176;-0.708;2022-09-20T16:13:55;2;2;
55518;PMS5003;41724;51.176;-0.708;2022-09-20T16:16:25;2;2;
55518;PMS5003;41724;51.176;-0.708;2022-09-20T16:18:55;4;2;
55518;PMS5003;41724;51.176;-0.708;2022-09-20T16:21:22;3;3;
55518;PMS5003;41724;51.176;-0.708;2022-09-20T16:23:50;2;2;
55518;PMS5003;41724;51.176;-0.708;2022-09-20T16:26:19;3;2;
55518;PMS5003;41724;51.176;-0.708;2022-09-20T16:28:48;3;3;
55518;PMS5003;41724;51.176;-0.708;2022-09-20T16:31:31;3;3;
55518;PMS5003;41724;51.176;-0.708;2022-09-20T16:34:02;2;2;
55518;PMS5003;41724;51.176;-0.708;2022-09-20T16:36:31;2;2;
55518;PMS5003;41724;51.176;-0.708;2022-09-20T16:38:59;3;3;
55518;PMS5003;41724;51.176;-0.708;2022-09-20T16:41:26;3;3;
55518;PMS5003;41724;51.176;-0.708;2022-09-20T16:43:54;2;2;
55518;PMS5003;41724;51.176;-0.708;2022-09-20T16:46:22;2;2;
55518;PMS5003;41724;51.176;-0.708;2022-09-20T16:48:50;3;3;
55518;PMS5003;41724;51.176;-0.708;2022-09-20T16:51:17;2;2;
55518;PMS5003;41724;51.176;-0.708;2022-09-20T16:53:45;4;4;
55518;PMS5003;41724;51.176;-0.708;2022-09-20T16:56:17;2;2;
55518;PMS5003;41724;51.176;-0.708;2022-09-20T16:58:44;5;4;
55518;PMS5003;41724;51.176;-0.708;2022-09-20T17:01:12;11;7;
55518;PMS5003;41724;51.176;-0.708;2022-09-20T17:03:44;3;3;
55518;PMS5003;41724;51.176;-0.708;2022-09-20T17:06:13;6;5;
55518;PMS5003;41724;51.176;-0.708;2022-09-20T17:08:41;3;3;
55518;PMS5003;41724;51.176;-0.708;2022-09-20T17:11:10;3;3;
55518;PMS5003;41724;51.176;-0.708;2022-09-20T17:13:38;3;3;
55518;PMS5003;41724;51.176;-0.708;2022-09-20T17:16:07;2;2;
55518;PMS5003;41724;51.176;-0.708;2022-09-20T17:18:35;4;4;
55518;PMS5003;41724;51.176;-0.708;2022-09-20T17:21:03;3;3;
55518;PMS5003;41724;51.176;-0.708;2022-09-20T17:23:31;6;5;
55518;PMS5003;41724;51.176;-0.708;2022-09-20T17:26:00;3;3;